Terminal Aerodrome Forecast
Issued by NWS

Home | Current Version | Previous Version | Text Only | Print | Product List | Glossary On
Versions: 1 2 3 4 5 6 7 8 9 10 11 12 13 14 15
000
FTUS43 KICT 300800 AAA
TAFRSL
TAF AMD
KRSL 300853Z 3009/3106 06007KT P6SM BKN060
     FM301000 10007KT P6SM VCSH BKN050
      TEMPO 3010/3014 -SHRA
     FM301800 09008KT P6SM BKN050
     FM310200 VRB05KT P6SM BKN200=

USA.gov is the U.S. government's official web portal to all federal, state and local government web resources and services.